Time;durP1;ratioP1;P1;durP2;ratioP2;P2;SDS_P1;SDS_P2;PMS_P1;PMS_P2;Temp;Humidity;BMP_temperature;BMP_pressure;BME280_temperature;BME280_humidity;BME280_pressure;Samples;Min_cycle;Max_cycle;Signal;HPM_P1;HPM_P2
2021/03/19 00:01:42;;;;;;;14.30;7.72;;;3.20;85.50;;;2.02;72.68;98419.41;5089122;28;20476;-85
2021/03/19 00:04:08;;;;;;;10.20;6.68;;;3.20;85.60;;;1.97;72.79;98424.31;5085336;28;20465;-84
2021/03/19 00:06:39;;;;;;;14.18;7.50;;;3.30;85.70;;;1.98;73.06;98413.72;5066592;28;20420;-84
2021/03/19 00:09:09;;;;;;;14.48;7.40;;;3.20;86.00;;;2.02;73.27;98408.97;5066358;28;20435;-85
2021/03/19 00:11:36;;;;;;;16.85;8.00;;;3.20;86.30;;;1.83;73.69;98412.81;5084350;28;20412;-84
2021/03/19 00:14:06;;;;;;;11.77;7.60;;;3.10;86.60;;;1.81;74.16;98405.16;5066947;28;20422;-84
2021/03/19 00:16:35;;;;;;;14.93;8.18;;;3.10;87.40;;;1.85;73.75;98403.84;5067679;28;20419;-84
2021/03/19 00:19:02;;;;;;;11.13;7.05;;;3.10;87.00;;;1.86;74.17;98407.25;5085574;28;20412;-84
2021/03/19 00:21:29;;;;;;;12.82;7.90;;;3.10;87.30;;;1.87;73.95;98401.88;5073706;28;20408;-84
2021/03/19 00:23:56;;;;;;;15.37;7.20;;;3.10;87.50;;;1.87;74.07;98407.09;5091558;28;20458;-84
2021/03/19 00:26:23;;;;;;;11.10;7.35;;;3.10;87.20;;;1.95;73.40;98407.03;5087457;28;20431;-82
2021/03/19 00:28:53;;;;;;;14.13;8.43;;;3.20;87.30;;;1.93;74.01;98406.41;5094052;28;20510;-83
2021/03/19 00:31:19;;;;;;;12.40;7.93;;;3.20;87.40;;;1.86;73.86;98397.63;5090191;28;20423;-85
2021/03/19 00:33:46;;;;;;;15.13;8.27;;;3.10;87.00;;;1.89;73.95;98396.47;5093274;28;20480;-83
2021/03/19 00:36:12;;;;;;;11.70;7.70;;;3.10;87.50;;;1.93;73.97;98398.56;5096141;28;20694;-85
2021/03/19 00:38:39;;;;;;;11.52;7.30;;;3.20;87.50;;;1.97;73.88;98393.81;5094506;28;20446;-84
2021/03/19 00:41:06;;;;;;;15.88;8.20;;;3.20;87.20;;;2.05;73.74;98391.16;5085977;28;20415;-84
2021/03/19 00:43:32;;;;;;;14.45;8.10;;;3.30;87.10;;;2.13;73.38;98393.72;5085495;28;20403;-84
2021/03/19 00:45:59;;;;;;;13.88;8.07;;;3.30;86.80;;;2.17;73.12;98392.41;5085722;28;20513;-84
2021/03/19 00:48:25;;;;;;;12.35;7.70;;;3.30;86.80;;;2.34;73.37;98393.09;5067545;28;20651;-84
2021/03/19 00:50:55;;;;;;;11.38;7.25;;;3.40;86.90;;;2.34;72.91;98387.84;5067436;28;20476;-83
2021/03/19 00:53:24;;;;;;;11.45;7.05;;;3.50;86.40;;;2.43;72.44;98386.81;5085015;28;20413;-84
2021/03/19 00:55:55;;;;;;;10.82;7.28;;;3.60;85.80;;;2.18;72.69;98388.78;5083128;28;20890;-84
2021/03/19 00:58:23;;;;;;;13.77;7.15;;;3.50;85.50;;;2.32;72.45;98382.84;5085204;28;20419;-84
2021/03/19 01:00:49;;;;;;;11.70;7.30;;;3.50;85.80;;;2.34;72.36;98380.84;5085015;28;20809;-83
2021/03/19 01:03:15;;;;;;;12.32;7.35;;;3.50;85.90;;;2.26;73.03;98382.69;5083718;28;20833;-83
2021/03/19 01:05:44;;;;;;;10.32;7.13;;;3.40;86.10;;;2.19;73.15;98381.75;5084715;28;20404;-82
2021/03/19 01:08:14;;;;;;;13.05;7.47;;;3.40;86.30;;;2.19;73.40;98382.56;5083246;28;20809;-85
2021/03/19 01:10:43;;;;;;;12.00;6.85;;;3.40;86.60;;;2.20;73.67;98386.81;5083065;28;20748;-84
2021/03/19 01:13:10;;;;;;;15.70;8.00;;;3.40;86.90;;;2.06;74.35;98386.75;5081941;28;20848;-83
2021/03/19 01:15:38;;;;;;;14.20;7.18;;;3.30;87.50;;;2.11;74.02;98384.41;5063829;28;20511;-83
2021/03/19 01:18:10;;;;;;;11.30;7.63;;;3.30;87.30;;;2.16;73.66;98379.50;5063238;28;20849;-84
2021/03/19 01:20:39;;;;;;;13.77;7.80;;;3.40;87.30;;;2.19;74.12;98382.56;5079445;28;20407;-83
2021/03/19 01:23:05;;;;;;;11.85;7.22;;;3.50;87.50;;;2.28;74.15;98365.88;5080571;28;20756;-83
2021/03/19 01:25:32;;;;;;;13.15;7.47;;;3.50;87.30;;;2.35;73.10;98376.44;5080833;28;20446;-83
2021/03/19 01:27:58;;;;;;;12.52;7.60;;;3.50;86.60;;;2.42;72.79;98364.28;5081081;28;20442;-83
2021/03/19 01:30:29;;;;;;;13.30;7.68;;;3.60;86.30;;;2.39;72.78;98369.88;5079461;28;20774;-83
2021/03/19 01:32:56;;;;;;;12.30;7.15;;;3.60;86.10;;;2.45;72.74;98370.97;5079728;28;20403;-83
2021/03/19 01:35:23;;;;;;;16.58;7.68;;;3.60;86.10;;;2.41;72.99;98364.47;5079902;28;20725;-83
2021/03/19 01:37:53;;;;;;;11.35;7.90;;;3.60;86.10;;;2.36;73.17;98361.56;5079726;28;20509;-83
2021/03/19 01:40:23;;;;;;;12.80;7.80;;;3.60;86.50;;;2.37;73.08;98360.59;5079965;28;20404;-83
2021/03/19 01:42:52;;;;;;;12.48;8.35;;;3.60;86.40;;;2.41;72.56;98365.28;5078887;28;20411;-83
2021/03/19 01:46:09;;;;;;;11.20;7.95;;;3.60;86.00;;;2.42;72.44;98356.44;5081182;28;20408;-83
2021/03/19 01:49:32;;;;;;;12.77;8.35;;;3.60;85.90;;;2.27;72.91;98348.56;5085379;28;20420;-84
2021/03/19 01:52:54;;;;;;;15.27;8.37;;;3.50;86.10;;;2.18;73.63;98346.22;5083789;28;20399;-82
2021/03/19 01:56:16;;;;;;;13.20;8.60;;;3.50;86.60;;;2.12;73.59;98346.88;5083601;28;20468;-82
2021/03/19 01:59:38;;;;;;;13.63;9.23;;;3.40;86.60;;;2.02;74.08;98341.91;5081048;28;20573;-83
2021/03/19 02:03:00;;;;;;;17.88;9.98;;;3.30;87.40;;;2.08;74.10;98337.78;5081964;28;20396;-84
2021/03/19 02:06:22;;;;;;;18.10;9.63;;;3.40;87.20;;;2.20;73.70;98331.97;5084252;28;20391;-83
2021/03/19 02:09:44;;;;;;;15.98;9.40;;;3.40;87.00;;;2.10;74.32;98331.41;5084620;28;20399;-82
2021/03/19 02:13:06;;;;;;;14.10;8.75;;;3.40;87.30;;;1.88;74.89;98333.00;5085928;28;20468;-82
2021/03/19 02:16:28;;;;;;;13.48;9.50;;;3.20;87.90;;;1.95;75.34;98331.31;5085576;28;20383;-84
2021/03/19 02:20:05;;;;;;;16.63;10.02;;;3.20;88.80;;;1.96;74.06;98321.69;5085942;28;20415;-83
2021/03/19 02:23:27;;;;;;;14.20;9.43;;;3.20;87.70;;;2.09;73.16;98311.50;5000291;28;20425;-84
2021/03/19 02:26:48;;;;;;;16.63;9.98;;;3.30;86.80;;;2.10;73.23;98325.38;5001101;28;20472;-82
2021/03/19 02:30:19;;;;;;;14.40;10.23;;;3.30;86.80;;;2.18;72.40;98318.25;5064965;28;20698;-82
2021/03/19 02:32:46;;;;;;;15.50;9.50;;;3.40;86.20;;;2.08;72.47;98332.56;5035012;28;20416;-84
2021/03/19 02:35:16;;;;;;;14.95;10.15;;;3.30;85.80;;;1.96;73.06;98342.56;5082254;28;20415;-84
2021/03/19 02:37:43;;;;;;;16.77;10.20;;;3.20;86.10;;;1.91;73.27;98344.91;5081844;28;20424;-84
2021/03/19 02:40:16;;;;;;;16.50;10.00;;;3.10;86.50;;;1.87;73.59;98341.03;5067221;28;20774;-84
2021/03/19 02:42:42;;;;;;;16.98;9.90;;;3.00;86.80;;;1.88;73.73;98345.25;5068209;28;20443;-84
2021/03/19 02:45:13;;;;;;;17.37;10.23;;;3.10;87.20;;;1.96;73.63;98345.19;5092187;28;20480;-84
2021/03/19 02:47:40;;;;;;;15.88;10.13;;;3.20;87.20;;;2.09;73.52;98339.41;5069477;28;20970;-84
2021/03/19 02:50:10;;;;;;;16.20;9.83;;;3.30;88.00;;;2.12;74.06;98337.25;5068017;28;20490;-85
2021/03/19 02:52:43;;;;;;;16.13;9.98;;;3.40;87.40;;;2.19;72.68;98343.41;5066261;28;20481;-86
2021/03/19 02:55:14;;;;;;;18.10;10.40;;;3.40;86.20;;;2.34;72.04;98339.03;5084882;28;20418;-85
2021/03/19 02:57:41;;;;;;;16.33;10.13;;;3.40;85.50;;;2.30;72.01;98339.56;5084410;28;20427;-84
2021/03/19 03:00:15;;;;;;;18.02;10.05;;;3.50;85.50;;;2.31;72.15;98326.34;5084444;28;20481;-82
2021/03/19 03:02:41;;;;;;;17.00;10.02;;;3.60;85.60;;;2.32;71.92;98327.16;5084394;28;20419;-85
2021/03/19 03:05:10;;;;;;;16.02;10.45;;;3.60;85.30;;;2.27;71.18;98316.41;5082696;28;20715;-84
2021/03/19 03:07:36;;;;;;;17.95;10.20;;;3.60;84.40;;;2.36;71.33;98312.75;5082448;28;20412;-83
2021/03/19 03:10:07;;;;;;;16.02;10.23;;;3.50;84.60;;;2.47;71.16;98319.38;5082358;28;20415;-83
2021/03/19 03:12:33;;;;;;;13.52;9.63;;;3.60;84.60;;;2.46;70.99;98312.50;5082158;28;20693;-84
2021/03/19 03:15:00;;;;;;;15.10;9.60;;;3.60;84.20;;;2.52;70.46;98319.63;5082164;28;20399;-83
2021/03/19 03:17:26;;;;;;;15.40;10.13;;;3.70;83.80;;;2.59;69.78;98321.38;5081506;28;20427;-84
2021/03/19 03:19:52;;;;;;;15.70;9.43;;;3.70;83.30;;;2.53;69.74;98324.69;5081745;28;20407;-83
2021/03/19 03:22:19;;;;;;;15.70;10.30;;;3.70;83.00;;;2.45;70.01;98326.56;5080980;28;20416;-84
2021/03/19 03:24:45;;;;;;;20.10;10.45;;;3.70;83.10;;;2.49;70.23;98327.81;5082452;28;20465;-82
2021/03/19 03:27:11;;;;;;;14.27;9.90;;;3.60;83.40;;;2.41;69.88;98331.31;5064161;28;20532;-83
2021/03/19 03:29:38;;;;;;;17.17;10.40;;;3.60;82.80;;;2.26;70.69;98325.22;5081881;28;20431;-83
2021/03/19 03:32:05;;;;;;;15.77;10.60;;;3.50;83.60;;;2.25;70.40;98318.41;5081803;28;20855;-84
2021/03/19 03:34:32;;;;;;;16.92;10.50;;;3.40;83.70;;;2.22;70.54;98316.13;5082570;28;20404;-83
2021/03/19 03:36:59;;;;;;;15.73;10.20;;;3.40;83.60;;;2.10;70.83;98317.53;5086449;28;20407;-83
2021/03/19 03:39:30;;;;;;;18.20;10.27;;;3.30;83.90;;;2.08;71.12;98327.34;5081757;28;20483;-84
2021/03/19 03:41:59;;;;;;;17.65;9.73;;;3.30;84.40;;;2.05;71.37;98320.66;5078480;28;20408;-83
2021/03/19 03:44:25;;;;;;;17.27;10.48;;;3.20;84.30;;;2.00;71.21;98319.56;5078354;28;20391;-83
2021/03/19 03:46:53;;;;;;;15.50;10.82;;;3.30;84.60;;;2.01;71.68;98315.97;5078411;28;20404;-82
2021/03/19 03:49:19;;;;;;;18.95;10.98;;;3.30;84.90;;;2.08;71.41;98324.72;5060119;28;20426;-83
2021/03/19 03:51:46;;;;;;;17.87;10.77;;;3.30;84.60;;;2.02;71.46;98318.41;5078575;28;20477;-84
2021/03/19 03:54:13;;;;;;;17.05;10.68;;;3.30;84.70;;;1.90;72.61;98323.19;5077102;28;20504;-84
2021/03/19 03:56:41;;;;;;;16.77;10.37;;;3.20;85.70;;;2.15;71.07;98323.84;5083669;28;20408;-84
2021/03/19 03:59:07;;;;;;;17.35;10.63;;;3.30;84.60;;;2.11;71.41;98324.34;5084620;28;20704;-85
2021/03/19 04:01:36;;;;;;;17.52;10.82;;;3.40;84.60;;;2.10;71.32;98315.75;5091920;28;20417;-84
2021/03/19 04:04:02;;;;;;;14.98;10.57;;;3.30;84.40;;;2.09;72.11;98321.94;5092928;28;20411;-84
2021/03/19 04:06:28;;;;;;;20.92;11.20;;;3.40;85.10;;;2.12;72.34;98323.38;5091558;28;20498;-83
2021/03/19 04:08:54;;;;;;;17.33;11.32;;;3.40;85.30;;;2.07;72.41;98318.69;5068043;28;20860;-83
2021/03/19 04:11:23;;;;;;;17.67;10.52;;;3.40;85.70;;;2.12;72.96;98318.16;5086328;28;20477;-83
2021/03/19 04:13:51;;;;;;;17.25;10.75;;;3.30;85.90;;;2.20;72.53;98321.53;5087186;28;20411;-81
2021/03/19 04:16:18;;;;;;;19.55;10.90;;;3.40;85.80;;;2.04;72.29;98324.25;5087517;28;20408;-83
2021/03/19 04:18:45;;;;;;;20.55;11.90;;;3.40;85.30;;;1.93;72.81;98324.66;5088698;28;20427;-83
2021/03/19 04:21:13;;;;;;;16.77;11.57;;;3.20;85.50;;;1.94;72.22;98321.88;5090149;28;20407;-82
2021/03/19 04:23:42;;;;;;;17.38;10.30;;;3.20;85.60;;;2.09;72.20;98315.91;5084645;28;20434;-82
2021/03/19 04:26:23;;;;;;;18.27;11.07;;;3.30;85.60;;;2.21;70.85;98315.31;5064808;28;20412;-82
2021/03/19 04:28:51;;;;;;;18.77;10.30;;;3.40;84.20;;;2.27;70.66;98316.41;5082768;28;20415;-82
2021/03/19 04:31:18;;;;;;;20.03;11.90;;;3.50;84.00;;;2.15;71.12;98308.19;5064856;28;20516;-82
2021/03/19 04:33:44;;;;;;;18.80;11.02;;;3.40;84.10;;;2.10;71.51;98314.94;5081174;28;20422;-82
2021/03/19 04:36:31;;;;;;;16.55;10.60;;;3.40;84.40;;;2.09;71.46;98308.88;5059389;28;20417;-83
2021/03/19 04:39:01;;;;;;;17.03;11.13;;;3.40;84.40;;;2.07;71.63;98310.03;5062029;28;20505;-84
2021/03/19 04:41:29;;;;;;;16.90;11.77;;;3.30;84.70;;;2.07;71.82;98315.25;5064205;28;20417;-83
2021/03/19 04:43:56;;;;;;;19.38;12.43;;;3.30;84.90;;;2.05;72.73;98320.66;5070047;28;20428;-81
2021/03/19 04:46:22;;;;;;;16.48;11.20;;;3.30;85.70;;;2.20;72.17;98316.28;5068699;28;21249;-81
2021/03/19 04:48:48;;;;;;;15.07;10.25;;;3.30;85.60;;;2.34;70.50;98323.38;5073305;28;20469;-80
2021/03/19 04:51:15;;;;;;;13.30;10.10;;;3.50;84.00;;;2.34;69.96;98320.75;5064693;28;20420;-80
2021/03/19 04:53:41;;;;;;;20.38;10.77;;;3.50;83.20;;;2.41;69.96;98320.84;5069949;28;20413;-84
2021/03/19 04:56:07;;;;;;;18.73;11.32;;;3.50;83.90;;;2.21;70.54;98328.38;5070191;28;20428;-84
2021/03/19 04:58:33;;;;;;;15.75;10.77;;;3.50;83.40;;;2.26;70.36;98326.03;5068162;28;20548;-84
2021/03/19 05:01:00;;;;;;;17.25;11.57;;;3.50;83.50;;;2.13;71.02;98320.59;5065261;28;20405;-83
2021/03/19 05:03:26;;;;;;;17.60;11.30;;;3.40;83.80;;;2.15;72.09;98316.00;5062024;28;20421;-83
2021/03/19 05:05:52;;;;;;;20.02;11.70;;;3.40;85.10;;;2.07;72.26;98320.47;5060808;28;20416;-81
2021/03/19 05:08:18;;;;;;;16.05;11.27;;;3.30;85.10;;;2.17;72.04;98323.69;5060129;28;20640;-81
2021/03/19 05:10:45;;;;;;;16.13;11.38;;;3.40;85.40;;;2.18;72.18;98326.09;5058466;28;20409;-81
2021/03/19 05:13:11;;;;;;;19.75;11.77;;;3.40;85.10;;;2.27;71.25;98321.63;5059900;28;20417;-82
2021/03/19 05:15:38;;;;;;;20.33;10.82;;;3.50;85.00;;;2.35;70.30;98324.19;5061807;28;20556;-82
2021/03/19 05:18:06;;;;;;;18.15;10.45;;;3.50;83.70;;;2.23;70.94;98331.63;5063342;28;20469;-84
2021/03/19 05:20:33;;;;;;;16.67;10.98;;;3.40;83.90;;;2.17;70.88;98321.88;5059876;28;20467;-81
2021/03/19 05:22:59;;;;;;;15.50;10.80;;;3.40;83.90;;;2.11;71.04;98326.97;5058547;28;20413;-81
2021/03/19 05:25:30;;;;;;;16.07;11.17;;;3.30;84.20;;;2.05;71.34;98331.09;5058963;28;20521;-82
2021/03/19 05:27:58;;;;;;;15.55;10.82;;;3.20;84.30;;;1.95;71.27;98333.94;5064048;28;20425;-83
2021/03/19 05:30:28;;;;;;;16.42;11.10;;;3.20;84.40;;;2.00;71.62;98335.22;5063640;28;20416;-83
2021/03/19 05:32:54;;;;;;;16.02;10.52;;;3.20;84.70;;;2.00;71.49;98335.22;5066854;28;20421;-82
2021/03/19 05:35:23;;;;;;;17.00;10.80;;;3.10;84.80;;;1.99;71.69;98336.19;5066267;28;20451;-82
2021/03/19 05:37:50;;;;;;;16.85;11.48;;;3.20;85.10;;;1.98;72.08;98342.41;5063055;28;20441;-83
2021/03/19 05:40:29;;;;;;;15.27;10.93;;;3.10;85.20;;;1.98;72.15;98331.97;5060881;28;20459;-83
2021/03/19 05:43:14;;;;;;;17.95;11.75;;;3.20;85.70;;;1.92;72.84;98344.72;5061917;28;20433;-83
2021/03/19 05:45:41;;;;;;;21.88;12.05;;;3.10;85.90;;;1.95;72.48;98344.38;5062365;28;20485;-83
2021/03/19 05:48:09;;;;;;;18.98;11.88;;;3.20;86.10;;;1.78;73.09;98347.25;5062660;28;20420;-86
2021/03/19 05:50:38;;;;;;;19.40;12.63;;;3.10;86.10;;;1.73;73.19;98344.38;5062299;28;20412;-84
2021/03/19 05:53:10;;;;;;;18.65;12.60;;;3.00;86.60;;;1.68;74.26;98352.69;5063427;28;20739;-84
2021/03/19 05:55:39;;;;;;;19.13;12.48;;;2.90;87.30;;;1.78;73.62;98355.09;5065239;28;20409;-83
2021/03/19 05:58:13;;;;;;;18.75;12.50;;;2.90;87.20;;;1.84;73.46;98363.06;5064671;28;20428;-83
2021/03/19 06:00:39;;;;;;;23.45;12.82;;;3.00;87.20;;;1.77;73.67;98367.34;5065386;28;20431;-84
2021/03/19 06:03:08;;;;;;;22.42;13.40;;;3.00;87.00;;;1.72;74.09;98371.44;5063717;28;20495;-83
2021/03/19 06:05:59;;;;;;;18.60;12.68;;;2.90;87.40;;;1.74;74.04;98372.88;5064899;28;20912;-83
2021/03/19 06:08:33;;;;;;;22.30;12.55;;;3.00;87.40;;;1.54;74.70;98379.50;5064303;28;20672;-83
2021/03/19 06:11:20;;;;;;;25.13;14.13;;;2.90;87.80;;;1.53;74.85;98378.69;5064769;28;20413;-84
2021/03/19 06:13:55;;;;;;;26.30;14.97;;;2.80;88.50;;;1.55;75.37;98375.91;5073053;28;20401;-83
2021/03/19 06:16:40;;;;;;;22.90;14.18;;;2.80;88.80;;;1.61;75.65;98383.06;5069851;28;20432;-84
2021/03/19 06:19:33;;;;;;;22.83;14.68;;;2.80;89.20;;;1.59;75.31;98387.63;5070989;28;20465;-83
2021/03/19 06:22:17;;;;;;;22.80;15.13;;;2.80;89.00;;;1.69;76.11;98383.03;5065429;28;20409;-84
2021/03/19 06:24:51;;;;;;;21.30;13.90;;;2.80;90.00;;;1.51;76.30;98387.66;5065969;28;20425;-84
2021/03/19 06:27:23;;;;;;;23.02;15.18;;;2.80;89.80;;;1.54;76.71;98395.97;5066073;28;20539;-83
2021/03/19 06:29:54;;;;;;;24.73;15.18;;;2.80;90.10;;;1.57;76.36;98397.44;5069709;28;20402;-83
2021/03/19 06:32:30;;;;;;;24.02;16.13;;;2.80;90.20;;;1.59;76.47;98398.06;5093262;28;20498;-83
2021/03/19 06:35:20;;;;;;;24.63;15.32;;;2.80;90.10;;;1.58;76.82;98399.03;5097273;28;20422;-82
2021/03/19 06:37:51;;;;;;;26.75;17.20;;;2.80;90.20;;;1.57;76.80;98394.84;5094115;28;20421;-84
2021/03/19 06:40:31;;;;;;;25.20;16.10;;;2.80;90.10;;;1.59;76.75;98405.91;5107190;28;20493;-84
2021/03/19 06:43:16;;;;;;;26.40;16.80;;;2.80;90.30;;;1.58;77.19;98400.88;5100663;28;20441;-82
2021/03/19 06:45:47;;;;;;;26.95;16.75;;;2.80;90.50;;;1.53;77.42;98398.75;5101743;28;20406;-83
2021/03/19 06:48:35;;;;;;;27.30;17.02;;;2.70;90.50;;;1.51;77.55;98398.09;5101568;28;20471;-84
2021/03/19 06:51:04;;;;;;;27.98;17.70;;;2.70;90.60;;;1.40;77.69;98393.25;5105799;28;20415;-84
2021/03/19 06:53:32;;;;;;;25.35;17.55;;;2.60;90.70;;;1.43;78.43;98388.50;5089558;28;20415;-84
2021/03/19 06:56:16;;;;;;;37.15;20.73;;;2.60;91.10;;;1.52;77.85;98399.72;5081281;28;20454;-83
2021/03/19 06:58:48;;;;;;;29.63;17.65;;;2.70;91.00;;;1.61;78.01;98395.28;5079755;28;20702;-84
2021/03/19 07:01:35;;;;;;;28.25;17.50;;;2.80;91.00;;;1.58;77.62;98401.66;5081677;28;20809;-84
2021/03/19 07:04:47;;;;;;;29.43;19.20;;;2.80;90.50;;;1.74;76.67;98398.97;5080563;28;20447;-83
2021/03/19 07:08:01;;;;;;;31.63;18.48;;;2.90;90.70;;;1.62;77.43;98396.91;5062716;28;20427;-85
2021/03/19 07:10:47;;;;;;;28.47;18.73;;;2.80;90.60;;;1.56;77.79;98401.03;5061683;28;20443;-85
2021/03/19 07:13:45;;;;;;;31.20;18.98;;;2.80;90.70;;;1.70;77.35;98405.53;5088788;28;20411;-83
2021/03/19 07:16:16;;;;;;;29.02;18.92;;;2.80;90.70;;;1.73;77.07;98399.97;5082204;28;20407;-84
2021/03/19 07:19:31;;;;;;;30.70;19.87;;;3.00;90.50;;;1.83;77.19;98400.56;5089542;28;20423;-84
2021/03/19 07:22:14;;;;;;;28.52;19.73;;;3.00;90.50;;;1.70;77.36;98392.50;5087165;28;20683;-84
2021/03/19 07:25:28;;;;;;;33.80;20.00;;;2.90;90.50;;;1.80;77.11;98405.34;5084045;28;20416;-83
2021/03/19 07:28:41;;;;;;;49.28;22.05;;;3.00;90.60;;;1.90;76.92;98411.97;5089768;28;20517;-83
2021/03/19 07:31:50;;;;;;;31.50;20.13;;;3.00;90.60;;;2.01;76.61;98417.78;5068127;28;20427;-83
2021/03/19 07:34:47;;;;;;;29.27;19.55;;;3.10;90.30;;;2.16;75.42;98416.06;5079591;28;20419;-83
2021/03/19 07:37:27;;;;;;;34.65;21.90;;;3.30;89.90;;;2.14;76.38;98418.03;5078543;28;20399;-82
2021/03/19 07:40:17;;;;;;;31.63;20.07;;;3.30;90.10;;;2.23;75.66;98424.84;5080529;28;20415;-83
2021/03/19 07:43:46;;;;;;;30.70;20.60;;;3.40;90.00;;;2.34;75.86;98427.88;5076459;28;20438;-83
2021/03/19 07:46:26;;;;;;;27.65;19.25;;;3.50;89.90;;;2.02;76.12;98429.88;5081619;28;20419;-85
2021/03/19 07:49:10;;;;;;;36.45;21.92;;;3.30;89.60;;;2.08;76.63;98431.78;5063028;28;20419;-83
2021/03/19 07:51:52;;;;;;;34.28;21.45;;;3.30;90.30;;;2.12;77.35;98426.03;5081448;28;20403;-83
2021/03/19 07:54:26;;;;;;;30.27;20.25;;;3.20;90.70;;;2.24;77.53;98435.13;5082152;28;20411;-83
2021/03/19 07:57:02;;;;;;;28.17;18.85;;;3.40;90.60;;;2.30;76.26;98431.81;5082891;28;20404;-83
2021/03/19 07:59:42;;;;;;;28.50;19.30;;;3.50;90.30;;;2.46;76.27;98428.28;5064384;28;20560;-84
2021/03/19 08:03:04;;;;;;;29.33;19.17;;;3.60;90.20;;;2.49;75.72;98433.16;5079718;28;20411;-83
2021/03/19 08:05:40;;;;;;;26.08;17.63;;;3.60;89.60;;;2.53;75.32;98438.88;5044682;28;20431;-84
2021/03/19 08:08:30;;;;;;;23.15;16.40;;;3.70;89.40;;;2.68;74.62;98432.72;5080874;28;20407;-84
2021/03/19 08:11:10;;;;;;;25.58;16.55;;;3.80;89.00;;;2.49;74.75;98438.38;5062995;28;20407;-84
2021/03/19 08:13:52;;;;;;;36.90;19.97;;;3.70;88.30;;;2.56;75.55;98439.31;5080666;28;20412;-83
2021/03/19 08:16:27;;;;;;;26.73;18.15;;;3.70;89.50;;;2.30;76.61;98439.66;5079609;28;20412;-84
2021/03/19 08:19:07;;;;;;;26.92;18.67;;;3.50;90.10;;;2.06;77.29;98436.38;5060629;28;20557;-84
2021/03/19 08:21:42;;;;;;;25.67;18.37;;;3.40;90.40;;;2.10;77.56;98438.47;5079340;28;20857;-85
2021/03/19 08:24:38;;;;;;;27.50;17.25;;;3.30;90.80;;;1.94;77.90;98441.16;5079812;28;20415;-84
2021/03/19 08:27:13;;;;;;;26.58;18.35;;;3.20;90.80;;;1.84;78.22;98448.38;5061945;28;20773;-84
2021/03/19 08:30:01;;;;;;;26.98;18.17;;;3.10;91.00;;;1.98;77.75;98447.66;5080289;28;20689;-84
2021/03/19 08:32:49;;;;;;;481.10;71.77;;;3.20;91.00;;;2.16;78.15;98452.66;5080640;28;20503;-83
2021/03/19 08:35:27;;;;;;;33.97;18.40;;;3.30;91.20;;;2.31;77.38;98446.50;5079767;28;20411;-83
2021/03/19 08:38:16;;;;;;;23.80;17.60;;;3.50;90.80;;;2.23;77.67;98446.56;5080589;28;20450;-83
2021/03/19 08:40:48;;;;;;;28.40;18.73;;;3.40;90.60;;;2.16;77.21;98453.47;5078736;28;20415;-83
2021/03/19 08:43:24;;;;;;;28.03;18.60;;;3.40;90.40;;;2.18;77.38;98454.06;5061444;28;20489;-82
2021/03/19 08:46:00;;;;;;;29.33;19.40;;;3.40;90.60;;;2.14;77.59;98465.88;5079377;28;20418;-83
2021/03/19 08:48:31;;;;;;;31.02;20.67;;;3.30;90.80;;;2.20;78.21;98459.13;5062239;28;20431;-84
2021/03/19 08:51:19;;;;;;;32.15;19.50;;;3.40;91.10;;;2.25;77.46;98467.28;5078235;28;20404;-83
2021/03/19 08:54:32;;;;;;;26.90;17.83;;;3.50;90.80;;;2.05;77.86;98466.88;5079641;28;20496;-83
2021/03/19 08:57:31;;;;;;;26.23;18.23;;;3.30;90.80;;;2.03;78.07;98470.66;5077556;28;20416;-84
2021/03/19 08:59:58;;;;;;;27.80;19.23;;;3.30;90.80;;;2.05;78.56;98471.28;5061463;28;20430;-83
2021/03/19 09:02:59;;;;;;;23.97;16.27;;;3.30;91.20;;;1.89;78.42;98474.78;5060859;28;20842;-85
2021/03/19 09:05:36;;;;;;;26.40;16.90;;;3.10;90.90;;;1.92;78.62;98474.44;5061745;28;20710;-85
2021/03/19 09:08:24;;;;;;;26.23;17.85;;;3.10;91.20;;;1.72;78.96;98476.66;5080881;28;20415;-85
2021/03/19 09:11:11;;;;;;;26.80;18.50;;;3.00;91.40;;;1.84;79.16;98479.69;5083811;28;20932;-84
2021/03/19 09:14:08;;;;;;;30.27;18.88;;;3.00;91.50;;;2.03;78.73;98481.13;5085495;28;20736;-85
2021/03/19 09:16:48;;;;;;;26.07;18.53;;;3.20;91.40;;;2.18;77.73;98480.19;5080154;28;20446;-84
2021/03/19 09:19:59;;;;;;;27.98;19.52;;;3.30;90.90;;;2.31;77.16;98490.94;5079263;28;20431;-82
2021/03/19 09:22:44;;;;;;;25.08;18.27;;;3.50;90.60;;;2.68;75.72;98484.97;5079036;28;20518;-83
2021/03/19 09:25:39;;;;;;;29.70;17.00;;;3.80;90.10;;;2.59;75.39;98478.19;5079427;28;20478;-83
2021/03/19 09:28:39;;;;;;;21.17;15.27;;;3.80;89.00;;;2.63;73.81;98489.13;5080090;28;20503;-85
2021/03/19 09:31:42;;;;;;;22.35;15.38;;;3.80;87.40;;;2.81;74.07;98494.84;5062586;28;20441;-83
2021/03/19 09:34:22;;;;;;;23.90;15.15;;;4.00;87.90;;;3.01;72.77;98492.56;5080922;28;20426;-86
2021/03/19 09:37:04;;;;;;;18.85;13.85;;;4.20;87.00;;;2.85;73.63;98493.53;5077919;28;20496;-84
2021/03/19 09:40:12;;;;;;;18.52;13.85;;;4.10;87.00;;;2.70;72.49;98498.69;5079523;28;20423;-85
2021/03/19 09:42:52;;;;;;;17.70;12.77;;;4.00;85.80;;;2.70;72.91;98498.69;5082418;28;20422;-85
2021/03/19 09:45:46;;;;;;;20.53;12.53;;;3.90;86.10;;;2.81;71.74;98494.03;5070748;28;20412;-84
2021/03/19 09:48:29;;;;;;;16.63;12.52;;;4.00;85.60;;;2.81;71.69;98505.31;5090348;28;20786;-85
2021/03/19 09:51:30;;;;;;;16.05;11.18;;;4.00;84.90;;;2.88;71.10;98508.03;5086456;28;20391;-85
2021/03/19 09:53:56;;;;;;;18.20;12.57;;;4.10;84.60;;;2.96;71.78;98510.59;5080526;28;20563;-83
2021/03/19 09:56:30;;;;;;;17.33;12.60;;;4.10;85.40;;;2.93;71.55;98511.75;5063963;28;20446;-85
2021/03/19 09:59:07;;;;;;;16.58;12.10;;;4.10;84.70;;;3.07;70.78;98516.25;5062677;28;20420;-84
2021/03/19 10:01:42;;;;;;;16.90;12.10;;;4.20;84.10;;;3.05;69.82;98510.38;5078686;28;20419;-84
2021/03/19 10:04:25;;;;;;;19.73;13.10;;;4.30;83.00;;;3.32;69.70;98510.78;5081323;28;20573;-84
2021/03/19 10:06:51;;;;;;;19.63;12.65;;;4.50;83.40;;;3.63;68.91;98516.72;5082906;28;20423;-83
2021/03/19 10:09:21;;;;;;;17.15;10.82;;;4.70;82.40;;;3.38;68.01;98507.50;5081969;28;20562;-85
2021/03/19 10:12:09;;;;;;;15.45;11.57;;;4.60;80.50;;;3.37;68.50;98513.72;5081537;28;20690;-84
2021/03/19 10:14:39;;;;;;;72.47;17.48;;;4.60;81.30;;;3.45;68.78;98503.16;5078819;28;20596;-84
2021/03/19 10:17:26;;;;;;;15.32;10.73;;;4.60;82.10;;;3.32;67.24;98511.59;5079460;28;20894;-84
2021/03/19 10:19:58;;;;;;;13.70;10.15;;;4.50;79.70;;;3.16;66.83;98516.19;5079146;28;20477;-84
2021/03/19 10:22:46;;;;;;;15.02;11.10;;;4.40;79.20;;;3.11;68.13;98524.53;5061389;28;20655;-84
2021/03/19 10:25:20;;;;;;;24.10;15.35;;;4.30;80.60;;;3.11;69.27;98524.53;5079805;28;20437;-85
2021/03/19 10:27:52;;;;;;;18.45;13.07;;;4.30;82.10;;;3.25;69.33;98528.19;5078329;28;20798;-84
2021/03/19 10:30:28;;;;;;;18.10;12.60;;;4.40;82.60;;;3.20;69.92;98513.03;5079770;28;20451;-84
2021/03/19 10:33:04;;;;;;;19.52;13.40;;;4.40;82.80;;;3.26;70.37;98524.59;5077845;28;20435;-84
2021/03/19 10:35:37;;;;;;;15.90;11.93;;;4.40;83.60;;;3.15;70.18;98522.41;5078023;28;20447;-83
2021/03/19 10:38:18;;;;;;;16.23;11.77;;;4.40;83.00;;;3.10;70.47;98538.59;5075757;28;20688;-83
2021/03/19 10:40:51;;;;;;;16.35;11.98;;;4.30;83.20;;;3.35;70.92;98526.97;5077742;28;20410;-82
2021/03/19 10:43:26;;;;;;;15.25;11.55;;;4.50;84.60;;;3.36;71.77;98525.16;5089449;28;20414;-82
2021/03/19 10:45:58;;;;;;;17.23;12.35;;;4.50;85.00;;;3.35;72.12;98529.59;5082757;28;20402;-80
2021/03/19 10:48:43;;;;;;;23.30;16.40;;;4.50;85.30;;;3.30;72.91;98526.69;5084325;28;20497;-82
2021/03/19 10:51:41;;;;;;;22.60;15.98;;;4.40;86.00;;;3.43;73.09;98531.31;5088428;28;20670;-81
2021/03/19 10:54:21;;;;;;;17.80;11.98;;;4.50;86.30;;;3.41;72.47;98530.66;5325400;22;20422;-80
2021/03/19 10:56:52;;;;;;;20.55;14.43;;;4.60;85.70;;;3.24;70.27;98523.94;5105431;28;20399;-80
2021/03/19 10:59:32;;;;;;;17.05;10.68;;;4.50;83.20;;;3.18;70.52;98538.53;5099725;28;20428;-80
2021/03/19 11:02:18;;;;;;;13.65;8.90;;;4.40;83.30;;;3.27;71.35;98528.84;5098079;28;20394;-82
2021/03/19 11:04:48;;;;;;;15.60;9.00;;;4.40;84.50;;;3.30;71.38;98536.34;5101092;28;20421;-82
2021/03/19 11:07:37;;;;;;;14.03;7.93;;;4.50;84.50;;;3.46;70.16;98526.53;5100087;28;20425;-82